sensor_id;sensor_type;location;lat;lon;timestamp;pressure;altitude;pressure_sealevel;temperature;humidity
49377;BME280;35253;34.688;33.040;2023-05-12T00:01:05;100196.84;;;25.69;73.68
49377;BME280;35253;34.688;33.040;2023-05-12T00:03:31;100202.22;;;25.55;74.17
49377;BME280;35253;34.688;33.040;2023-05-12T00:05:59;100193.13;;;25.48;74.83
49377;BME280;35253;34.688;33.040;2023-05-12T00:08:28;100189.72;;;25.46;75.79
49377;BME280;35253;34.688;33.040;2023-05-12T00:10:53;100186.31;;;25.38;76.81
49377;BME280;35253;34.688;33.040;2023-05-12T00:13:19;100171.38;;;25.34;77.74
49377;BME280;35253;34.688;33.040;2023-05-12T00:15:48;100168.38;;;25.29;78.61
49377;BME280;35253;34.688;33.040;2023-05-12T00:18:14;100143.63;;;25.30;78.67
49377;BME280;35253;34.688;33.040;2023-05-12T00:20:40;100129.75;;;25.25;77.97
49377;BME280;35253;34.688;33.040;2023-05-12T00:23:06;100147.47;;;25.14;77.58
49377;BME280;35253;34.688;33.040;2023-05-12T00:25:32;100154.44;;;25.17;76.78
49377;BME280;35253;34.688;33.040;2023-05-12T00:27:58;100151.56;;;25.25;76.28
49377;BME280;35253;34.688;33.040;2023-05-12T00:30:24;100146.97;;;25.26;76.94
49377;BME280;35253;34.688;33.040;2023-05-12T00:32:50;100143.19;;;25.27;75.82
49377;BME280;35253;34.688;33.040;2023-05-12T00:35:16;100149.63;;;25.19;75.65
49377;BME280;35253;34.688;33.040;2023-05-12T00:37:42;100174.69;;;25.29;74.52
49377;BME280;35253;34.688;33.040;2023-05-12T00:40:08;100186.97;;;25.40;74.68
49377;BME280;35253;34.688;33.040;2023-05-12T00:42:35;100179.47;;;25.48;78.77
49377;BME280;35253;34.688;33.040;2023-05-12T00:45:01;100165.56;;;25.43;80.04
49377;BME280;35253;34.688;33.040;2023-05-12T00:47:27;100157.97;;;25.39;78.32
49377;BME280;35253;34.688;33.040;2023-05-12T00:49:53;100168.19;;;25.30;77.58
49377;BME280;35253;34.688;33.040;2023-05-12T00:52:19;100177.22;;;25.31;78.11
49377;BME280;35253;34.688;33.040;2023-05-12T00:54:45;100179.25;;;25.22;79.25
49377;BME280;35253;34.688;33.040;2023-05-12T00:57:12;100170.81;;;25.17;80.04
49377;BME280;35253;34.688;33.040;2023-05-12T00:59:38;100164.56;;;25.23;80.01
49377;BME280;35253;34.688;33.040;2023-05-12T01:02:04;100157.44;;;25.22;80.52
49377;BME280;35253;34.688;33.040;2023-05-12T01:04:32;100166.91;;;25.26;80.90
49377;BME280;35253;34.688;33.040;2023-05-12T01:07:05;100175.72;;;25.28;81.60
49377;BME280;35253;34.688;33.040;2023-05-12T01:09:35;100163.09;;;25.48;84.01
49377;BME280;35253;34.688;33.040;2023-05-12T01:12:00;100164.66;;;25.36;88.60
49377;BME280;35253;34.688;33.040;2023-05-12T01:14:26;100171.97;;;25.29;91.22
49377;BME280;35253;34.688;33.040;2023-05-12T01:16:53;100163.13;;;25.27;92.31
49377;BME280;35253;34.688;33.040;2023-05-12T01:21:49;100159.50;;;25.20;93.18
49377;BME280;35253;34.688;33.040;2023-05-12T01:24:16;100170.81;;;25.17;94.69
49377;BME280;35253;34.688;33.040;2023-05-12T01:26:44;100176.72;;;25.21;99.45
49377;BME280;35253;34.688;33.040;2023-05-12T01:29:10;100179.25;;;25.22;100.00
49377;BME280;35253;34.688;33.040;2023-05-12T01:31:36;100176.69;;;25.14;100.00
49377;BME280;35253;34.688;33.040;2023-05-12T01:34:02;100179.16;;;25.09;100.00
49377;BME280;35253;34.688;33.040;2023-05-12T01:36:27;100183.06;;;25.00;100.00
49377;BME280;35253;34.688;33.040;2023-05-12T01:38:53;100187.78;;;24.91;100.00
49377;BME280;35253;34.688;33.040;2023-05-12T01:41:19;100193.41;;;24.33;100.00
49377;BME280;35253;34.688;33.040;2023-05-12T01:43:45;100201.38;;;23.75;100.00
49377;BME280;35253;34.688;33.040;2023-05-12T01:46:11;100218.16;;;23.50;100.00
49377;BME280;35253;34.688;33.040;2023-05-12T01:48:36;100229.44;;;23.61;100.00
49377;BME280;35253;34.688;33.040;2023-05-12T01:51:06;100232.91;;;23.55;100.00
49377;BME280;35253;34.688;33.040;2023-05-12T01:53:33;100229.28;;;23.17;100.00
49377;BME280;35253;34.688;33.040;2023-05-12T01:55:58;100230.50;;;23.15;100.00
49377;BME280;35253;34.688;33.040;2023-05-12T01:58:24;100215.16;;;23.22;100.00
49377;BME280;35253;34.688;33.040;2023-05-12T02:00:50;100228.03;;;23.28;100.00
49377;BME280;35253;34.688;33.040;2023-05-12T02:03:16;100237.88;;;23.29;100.00
49377;BME280;35253;34.688;33.040;2023-05-12T02:05:41;100244.56;;;23.41;100.00
49377;BME280;35253;34.688;33.040;2023-05-12T02:08:07;100251.47;;;23.29;100.00
49377;BME280;35253;34.688;33.040;2023-05-12T02:10:33;100258.88;;;23.20;100.00
49377;BME280;35253;34.688;33.040;2023-05-12T02:12:58;100259.50;;;23.22;100.00
49377;BME280;35253;34.688;33.040;2023-05-12T02:15:24;100263.13;;;23.38;100.00
49377;BME280;35253;34.688;33.040;2023-05-12T02:17:50;100249.31;;;23.47;100.00
49377;BME280;35253;34.688;33.040;2023-05-12T02:20:18;100232.16;;;23.61;100.00
49377;BME280;35253;34.688;33.040;2023-05-12T02:22:44;100222.22;;;23.68;100.00
49377;BME280;35253;34.688;33.040;2023-05-12T02:25:09;100229.38;;;23.69;100.00
49377;BME280;35253;34.688;33.040;2023-05-12T02:27:35;100240.72;;;23.73;100.00
49377;BME280;35253;34.688;33.040;2023-05-12T02:30:01;100250.00;;;23.78;100.00
49377;BME280;35253;34.688;33.040;2023-05-12T02:32:27;100257.81;;;23.82;100.00
49377;BME280;35253;34.688;33.040;2023-05-12T02:34:54;100263.44;;;23.80;100.00
49377;BME280;35253;34.688;33.040;2023-05-12T02:37:20;100275.34;;;23.79;100.00
49377;BME280;35253;34.688;33.040;2023-05-12T02:39:46;100277.34;;;23.85;100.00
49377;BME280;35253;34.688;33.040;2023-05-12T02:42:11;100278.19;;;23.86;100.00
49377;BME280;35253;34.688;33.040;2023-05-12T02:44:37;100275.84;;;23.83;100.00
49377;BME280;35253;34.688;33.040;2023-05-12T02:47:03;100280.44;;;23.97;100.00
49377;BME280;35253;34.688;33.040;2023-05-12T02:49:29;100266.19;;;23.95;100.00
49377;BME280;35253;34.688;33.040;2023-05-12T02:51:54;100270.63;;;23.96;100.00
49377;BME280;35253;34.688;33.040;2023-05-12T02:54:20;100265.13;;;23.81;100.00
49377;BME280;35253;34.688;33.040;2023-05-12T02:56:46;100270.97;;;23.78;100.00
49377;BME280;35253;34.688;33.040;2023-05-12T02:59:11;100272.06;;;23.69;100.00
49377;BME280;35253;34.688;33.040;2023-05-12T03:01:37;100269.28;;;23.77;100.00
49377;BME280;35253;34.688;33.040;2023-05-12T03:04:03;100282.97;;;23.84;100.00
49377;BME280;35253;34.688;33.040;2023-05-12T03:06:29;100292.94;;;23.91;100.00
49377;BME280;35253;34.688;33.040;2023-05-12T03:08:54;100297.16;;;23.94;100.00
49377;BME280;35253;34.688;33.040;2023-05-12T03:11:23;100298.28;;;23.85;100.00
49377;BME280;35253;34.688;33.040;2023-05-12T03:13:49;100294.81;;;23.91;100.00
49377;BME280;35253;34.688;33.040;2023-05-12T03:16:14;100281.00;;;23.77;100.00
49377;BME280;35253;34.688;33.040;2023-05-12T03:18:41;100277.22;;;23.78;100.00
49377;BME280;35253;34.688;33.040;2023-05-12T03:21:07;100285.31;;;23.72;100.00
49377;BME280;35253;34.688;33.040;2023-05-12T03:23:32;100283.31;;;23.66;100.00
49377;BME280;35253;34.688;33.040;2023-05-12T03:25:59;100283.44;;;23.72;100.00
49377;BME280;35253;34.688;33.040;2023-05-12T03:28:25;100281.44;;;23.66;100.00
49377;BME280;35253;34.688;33.040;2023-05-12T03:30:50;100286.81;;;23.74;100.00
49377;BME280;35253;34.688;33.040;2023-05-12T03:33:16;100284.59;;;23.78;100.00
49377;BME280;35253;34.688;33.040;2023-05-12T03:35:42;100289.47;;;23.83;100.00
49377;BME280;35253;34.688;33.040;2023-05-12T03:38:07;100292.53;;;23.79;100.00
49377;BME280;35253;34.688;33.040;2023-05-12T03:40:33;100292.09;;;23.91;100.00
49377;BME280;35253;34.688;33.040;2023-05-12T03:42:58;100299.22;;;23.92;100.00
49377;BME280;35253;34.688;33.040;2023-05-12T03:45:24;100307.34;;;24.00;100.00
49377;BME280;35253;34.688;33.040;2023-05-12T03:47:50;100308.53;;;23.97;100.00
49377;BME280;35253;34.688;33.040;2023-05-12T03:50:16;100312.00;;;24.06;100.00
49377;BME280;35253;34.688;33.040;2023-05-12T03:52:42;100305.25;;;24.02;100.00
49377;BME280;35253;34.688;33.040;2023-05-12T03:55:08;100308.44;;;24.05;100.00
49377;BME280;35253;34.688;33.040;2023-05-12T03:57:33;100310.03;;;24.14;100.00
49377;BME280;35253;34.688;33.040;2023-05-12T04:00:01;100306.78;;;24.19;100.00
49377;BME280;35253;34.688;33.040;2023-05-12T04:02:28;100307.00;;;24.17;100.00
49377;BME280;35253;34.688;33.040;2023-05-12T04:04:53;100321.34;;;24.41;100.00
49377;BME280;35253;34.688;33.040;2023-05-12T04:07:19;100320.50;;;24.40;100.00
49377;BME280;35253;34.688;33.040;2023-05-12T04:09:44;100322.66;;;24.59;100.00
49377;BME280;35253;34.688;33.040;2023-05-12T04:12:10;100329.16;;;24.58;100.00
49377;BME280;35253;34.688;33.040;2023-05-12T04:14:36;100331.47;;;24.76;100.00
49377;BME280;35253;34.688;33.040;2023-05-12T04:17:03;100328.63;;;24.84;100.00
49377;BME280;35253;34.688;33.040;2023-05-12T04:19:29;100336.75;;;24.92;100.00
49377;BME280;35253;34.688;33.040;2023-05-12T04:21:55;100325.53;;;25.02;100.00
49377;BME280;35253;34.688;33.040;2023-05-12T04:24:20;100327.75;;;25.13;100.00
49377;BME280;35253;34.688;33.040;2023-05-12T04:26:46;100341.91;;;25.23;100.00
49377;BME280;35253;34.688;33.040;2023-05-12T04:29:11;100334.97;;;25.21;100.00
49377;BME280;35253;34.688;33.040;2023-05-12T04:31:37;100350.19;;;25.30;100.00
49377;BME280;35253;34.688;33.040;2023-05-12T04:34:03;100352.38;;;25.41;100.00
49377;BME280;35253;34.688;33.040;2023-05-12T04:36:29;100355.66;;;24.94;100.00
49377;BME280;35253;34.688;33.040;2023-05-12T04:38:54;100363.44;;;24.67;100.00
49377;BME280;35253;34.688;33.040;2023-05-12T04:41:20;100364.03;;;24.92;100.00
49377;BME280;35253;34.688;33.040;2023-05-12T04:43:46;100362.66;;;25.18;100.00
49377;BME280;35253;34.688;33.040;2023-05-12T04:46:12;100369.03;;;25.10;100.00
49377;BME280;35253;34.688;33.040;2023-05-12T04:48:38;100360.69;;;25.33;100.00
49377;BME280;35253;34.688;33.040;2023-05-12T04:51:06;100358.84;;;25.54;100.00
49377;BME280;35253;34.688;33.040;2023-05-12T04:53:32;100361.56;;;25.76;100.00
49377;BME280;35253;34.688;33.040;2023-05-12T04:55:59;100368.38;;;25.80;100.00
49377;BME280;35253;34.688;33.040;2023-05-12T04:58:28;100362.66;;;26.02;100.00
49377;BME280;35253;34.688;33.040;2023-05-12T05:00:54;100369.06;;;26.16;100.00
49377;BME280;35253;34.688;33.040;2023-05-12T05:03:20;100369.88;;;25.46;100.00
49377;BME280;35253;34.688;33.040;2023-05-12T05:05:46;100388.09;;;25.39;100.00
49377;BME280;35253;34.688;33.040;2023-05-12T05:08:11;100379.81;;;25.33;100.00
49377;BME280;35253;34.688;33.040;2023-05-12T05:10:37;100379.38;;;25.50;100.00
49377;BME280;35253;34.688;33.040;2023-05-12T05:13:03;100380.22;;;25.93;100.00
49377;BME280;35253;34.688;33.040;2023-05-12T05:15:28;100374.75;;;25.66;100.00
49377;BME280;35253;34.688;33.040;2023-05-12T05:17:54;100372.63;;;25.46;100.00
49377;BME280;35253;34.688;33.040;2023-05-12T05:20:20;100379.09;;;25.60;100.00
49377;BME280;35253;34.688;33.040;2023-05-12T05:22:45;100371.19;;;25.50;100.00
49377;BME280;35253;34.688;33.040;2023-05-12T05:25:11;100376.94;;;25.55;100.00
49377;BME280;35253;34.688;33.040;2023-05-12T05:27:37;100387.78;;;25.49;100.00
49377;BME280;35253;34.688;33.040;2023-05-12T05:30:05;100382.13;;;25.72;100.00
49377;BME280;35253;34.688;33.040;2023-05-12T05:32:34;100392.00;;;25.51;100.00
49377;BME280;35253;34.688;33.040;2023-05-12T05:35:00;100399.31;;;25.66;100.00
49377;BME280;35253;34.688;33.040;2023-05-12T05:37:26;100389.25;;;25.66;100.00
49377;BME280;35253;34.688;33.040;2023-05-12T05:39:51;100384.28;;;25.76;100.00
49377;BME280;35253;34.688;33.040;2023-05-12T05:42:17;100391.50;;;25.84;100.00
49377;BME280;35253;34.688;33.040;2023-05-12T05:44:43;100397.56;;;26.07;100.00
49377;BME280;35253;34.688;33.040;2023-05-12T05:47:08;100394.63;;;26.02;100.00
49377;BME280;35253;34.688;33.040;2023-05-12T05:49:34;100402.19;;;26.07;95.27
49377;BME280;35253;34.688;33.040;2023-05-12T05:52:00;100395.22;;;25.97;89.13
49377;BME280;35253;34.688;33.040;2023-05-12T05:54:25;100398.09;;;26.17;88.56
49377;BME280;35253;34.688;33.040;2023-05-12T05:56:51;100403.56;;;26.17;87.24
49377;BME280;35253;34.688;33.040;2023-05-12T05:59:17;100400.34;;;25.86;89.59
49377;BME280;35253;34.688;33.040;2023-05-12T06:01:42;100399.16;;;25.95;94.59
49377;BME280;35253;34.688;33.040;2023-05-12T06:04:10;100394.09;;;25.92;100.00
49377;BME280;35253;34.688;33.040;2023-05-12T06:06:35;100400.56;;;26.12;100.00
49377;BME280;35253;34.688;33.040;2023-05-12T06:09:01;100405.88;;;25.92;100.00
49377;BME280;35253;34.688;33.040;2023-05-12T06:11:27;100403.19;;;26.20;100.00
49377;BME280;35253;34.688;33.040;2023-05-12T06:13:52;100404.66;;;26.51;100.00
49377;BME280;35253;34.688;33.040;2023-05-12T06:16:18;100394.28;;;26.74;98.82
49377;BME280;35253;34.688;33.040;2023-05-12T06:18:44;100400.69;;;26.53;94.55
49377;BME280;35253;34.688;33.040;2023-05-12T06:21:09;100403.38;;;26.81;93.00
49377;BME280;35253;34.688;33.040;2023-05-12T06:23:35;100403.25;;;26.89;94.17
49377;BME280;35253;34.688;33.040;2023-05-12T06:26:01;100403.63;;;26.86;87.43
49377;BME280;35253;34.688;33.040;2023-05-12T06:28:26;100407.66;;;27.38;81.09
49377;BME280;35253;34.688;33.040;2023-05-12T06:30:52;100402.75;;;27.26;77.67
49377;BME280;35253;34.688;33.040;2023-05-12T06:33:18;100397.03;;;27.15;73.78
49377;BME280;35253;34.688;33.040;2023-05-12T06:35:44;100395.84;;;27.37;75.42
49377;BME280;35253;34.688;33.040;2023-05-12T06:38:10;100399.25;;;27.46;82.08
49377;BME280;35253;34.688;33.040;2023-05-12T06:40:35;100397.81;;;27.50;83.83
49377;BME280;35253;34.688;33.040;2023-05-12T06:43:01;100407.31;;;27.67;84.64
49377;BME280;35253;34.688;33.040;2023-05-12T06:45:27;100399.13;;;27.93;84.80
49377;BME280;35253;34.688;33.040;2023-05-12T06:47:52;100406.28;;;27.74;83.63
49377;BME280;35253;34.688;33.040;2023-05-12T06:50:18;100401.19;;;27.65;77.52
49377;BME280;35253;34.688;33.040;2023-05-12T06:52:44;100408.78;;;27.69;79.22
49377;BME280;35253;34.688;33.040;2023-05-12T06:55:10;100408.19;;;27.81;79.17
49377;BME280;35253;34.688;33.040;2023-05-12T06:57:35;100419.16;;;27.94;78.10
49377;BME280;35253;34.688;33.040;2023-05-12T07:00:02;100410.72;;;27.95;77.70
49377;BME280;35253;34.688;33.040;2023-05-12T07:02:29;100413.44;;;27.75;80.43
49377;BME280;35253;34.688;33.040;2023-05-12T07:04:55;100415.78;;;27.85;83.32
49377;BME280;35253;34.688;33.040;2023-05-12T07:07:21;100409.00;;;27.61;86.14
49377;BME280;35253;34.688;33.040;2023-05-12T07:09:46;100407.75;;;27.64;87.47
49377;BME280;35253;34.688;33.040;2023-05-12T07:12:12;100413.63;;;27.61;88.72
49377;BME280;35253;34.688;33.040;2023-05-12T07:14:38;100413.66;;;27.87;89.12
49377;BME280;35253;34.688;33.040;2023-05-12T07:17:03;100414.56;;;28.27;84.43
49377;BME280;35253;34.688;33.040;2023-05-12T07:19:29;100414.91;;;27.78;82.59
49377;BME280;35253;34.688;33.040;2023-05-12T07:21:55;100419.16;;;27.81;85.60
49377;BME280;35253;34.688;33.040;2023-05-12T07:24:21;100419.31;;;27.66;86.38
49377;BME280;35253;34.688;33.040;2023-05-12T07:26:46;100422.19;;;27.45;83.88
49377;BME280;35253;34.688;33.040;2023-05-12T07:29:12;100425.47;;;27.68;82.79
49377;BME280;35253;34.688;33.040;2023-05-12T07:31:38;100411.16;;;27.92;84.69
49377;BME280;35253;34.688;33.040;2023-05-12T07:34:04;100425.06;;;27.97;85.06
49377;BME280;35253;34.688;33.040;2023-05-12T07:36:29;100418.16;;;28.21;83.30
49377;BME280;35253;34.688;33.040;2023-05-12T07:38:55;100422.97;;;27.86;83.53
49377;BME280;35253;34.688;33.040;2023-05-12T07:41:21;100425.91;;;27.85;81.07
49377;BME280;35253;34.688;33.040;2023-05-12T07:43:47;100420.41;;;28.04;80.11
49377;BME280;35253;34.688;33.040;2023-05-12T07:46:12;100426.78;;;28.18;79.74
49377;BME280;35253;34.688;33.040;2023-05-12T07:48:38;100421.94;;;28.13;87.34
49377;BME280;35253;34.688;33.040;2023-05-12T07:51:05;100417.88;;;27.96;89.39
49377;BME280;35253;34.688;33.040;2023-05-12T07:53:31;100433.44;;;27.69;95.48
49377;BME280;35253;34.688;33.040;2023-05-12T07:55:57;100434.75;;;27.80;100.00
49377;BME280;35253;34.688;33.040;2023-05-12T07:58:22;100420.00;;;27.88;100.00
49377;BME280;35253;34.688;33.040;2023-05-12T08:00:48;100421.88;;;27.87;100.00
49377;BME280;35253;34.688;33.040;2023-05-12T08:03:14;100435.19;;;28.03;100.00
49377;BME280;35253;34.688;33.040;2023-05-12T08:05:41;100433.72;;;28.07;100.00
49377;BME280;35253;34.688;33.040;2023-05-12T08:08:07;100432.28;;;28.11;100.00
49377;BME280;35253;34.688;33.040;2023-05-12T08:10:40;100436.69;;;28.19;100.00
49377;BME280;35253;34.688;33.040;2023-05-12T08:13:05;100443.25;;;28.11;100.00
49377;BME280;35253;34.688;33.040;2023-05-12T08:15:31;100451.03;;;28.14;100.00
49377;BME280;35253;34.688;33.040;2023-05-12T08:17:58;100453.91;;;27.87;100.00
49377;BME280;35253;34.688;33.040;2023-05-12T08:20:24;100441.91;;;27.81;100.00
49377;BME280;35253;34.688;33.040;2023-05-12T08:22:49;100448.72;;;28.11;100.00
49377;BME280;35253;34.688;33.040;2023-05-12T08:25:15;100440.72;;;28.43;100.00
49377;BME280;35253;34.688;33.040;2023-05-12T08:27:41;100442.81;;;28.60;100.00
49377;BME280;35253;34.688;33.040;2023-05-12T08:30:07;100444.91;;;28.78;100.00
49377;BME280;35253;34.688;33.040;2023-05-12T08:32:34;100441.31;;;28.71;100.00
49377;BME280;35253;34.688;33.040;2023-05-12T08:35:00;100441.72;;;28.81;100.00
49377;BME280;35253;34.688;33.040;2023-05-12T08:37:26;100449.50;;;28.97;97.62
49377;BME280;35253;34.688;33.040;2023-05-12T08:39:51;100467.78;;;29.30;99.18
49377;BME280;35253;34.688;33.040;2023-05-12T08:44:53;100449.03;;;29.14;92.49
49377;BME280;35253;34.688;33.040;2023-05-12T08:47:19;100443.88;;;29.37;91.07
49377;BME280;35253;34.688;33.040;2023-05-12T08:50:01;100452.84;;;29.13;86.27
49377;BME280;35253;34.688;33.040;2023-05-12T08:52:34;100463.31;;;29.29;88.09
49377;BME280;35253;34.688;33.040;2023-05-12T08:55:00;100445.59;;;29.18;84.77
49377;BME280;35253;34.688;33.040;2023-05-12T08:57:26;100462.94;;;29.19;84.07
49377;BME280;35253;34.688;33.040;2023-05-12T08:59:54;100450.06;;;29.70;83.75
49377;BME280;35253;34.688;33.040;2023-05-12T09:02:21;100457.81;;;29.29;86.29
49377;BME280;35253;34.688;33.040;2023-05-12T09:04:48;100450.69;;;29.15;82.77
49377;BME280;35253;34.688;33.040;2023-05-12T09:07:14;100464.47;;;29.01;81.98
49377;BME280;35253;34.688;33.040;2023-05-12T09:09:43;100453.13;;;28.91;81.10
49377;BME280;35253;34.688;33.040;2023-05-12T09:12:11;100454.94;;;29.17;81.35
49377;BME280;35253;34.688;33.040;2023-05-12T09:14:39;100442.75;;;29.51;81.43
49377;BME280;35253;34.688;33.040;2023-05-12T09:17:06;100434.59;;;29.38;79.09
49377;BME280;35253;34.688;33.040;2023-05-12T09:19:32;100449.84;;;29.14;76.75
49377;BME280;35253;34.688;33.040;2023-05-12T09:21:59;100453.69;;;29.13;80.48
49377;BME280;35253;34.688;33.040;2023-05-12T09:24:38;100451.38;;;28.97;83.42
49377;BME280;35253;34.688;33.040;2023-05-12T09:27:05;100448.69;;;28.90;85.58
49377;BME280;35253;34.688;33.040;2023-05-12T09:29:32;100460.47;;;28.97;88.65
49377;BME280;35253;34.688;33.040;2023-05-12T09:32:01;100442.56;;;28.75;94.20
49377;BME280;35253;34.688;33.040;2023-05-12T09:34:34;100473.59;;;28.62;97.69
49377;BME280;35253;34.688;33.040;2023-05-12T09:37:04;100457.97;;;28.63;94.45
49377;BME280;35253;34.688;33.040;2023-05-12T09:39:30;100452.47;;;28.89;97.96
49377;BME280;35253;34.688;33.040;2023-05-12T09:41:55;100452.19;;;29.10;97.03
49377;BME280;35253;34.688;33.040;2023-05-12T09:44:23;100463.06;;;28.53;98.40
49377;BME280;35253;34.688;33.040;2023-05-12T09:46:49;100461.56;;;28.57;100.00
49377;BME280;35253;34.688;33.040;2023-05-12T09:49:19;100455.44;;;28.68;100.00
49377;BME280;35253;34.688;33.040;2023-05-12T09:51:45;100457.78;;;28.71;100.00
49377;BME280;35253;34.688;33.040;2023-05-12T09:54:11;100471.09;;;28.74;100.00
49377;BME280;35253;34.688;33.040;2023-05-12T09:56:37;100457.16;;;28.76;100.00
49377;BME280;35253;34.688;33.040;2023-05-12T09:59:04;100465.19;;;28.77;100.00
49377;BME280;35253;34.688;33.040;2023-05-12T10:01:30;100451.88;;;28.61;100.00
49377;BME280;35253;34.688;33.040;2023-05-12T10:03:57;100467.28;;;28.49;100.00
49377;BME280;35253;34.688;33.040;2023-05-12T10:06:39;100453.34;;;28.50;100.00
49377;BME280;35253;34.688;33.040;2023-05-12T10:09:25;100457.13;;;28.69;100.00
49377;BME280;35253;34.688;33.040;2023-05-12T10:11:53;100456.50;;;28.54;100.00
49377;BME280;35253;34.688;33.040;2023-05-12T10:14:21;100472.75;;;28.49;100.00
49377;BME280;35253;34.688;33.040;2023-05-12T10:16:48;100445.75;;;28.46;100.00
49377;BME280;35253;34.688;33.040;2023-05-12T10:19:14;100455.03;;;28.45;100.00
49377;BME280;35253;34.688;33.040;2023-05-12T10:21:42;100453.06;;;29.04;100.00
49377;BME280;35253;34.688;33.040;2023-05-12T10:24:11;100463.25;;;28.84;100.00
49377;BME280;35253;34.688;33.040;2023-05-12T10:26:40;100454.56;;;29.00;100.00
49377;BME280;35253;34.688;33.040;2023-05-12T10:29:06;100456.63;;;29.11;100.00
49377;BME280;35253;34.688;33.040;2023-05-12T10:31:34;100464.59;;;29.33;100.00
49377;BME280;35253;34.688;33.040;2023-05-12T10:34:01;100461.69;;;29.15;100.00
49377;BME280;35253;34.688;33.040;2023-05-12T10:36:28;100459.50;;;29.43;100.00
49377;BME280;35253;34.688;33.040;2023-05-12T10:38:54;100456.09;;;29.47;100.00
49377;BME280;35253;34.688;33.040;2023-05-12T10:41:34;100470.53;;;29.30;100.00
49377;BME280;35253;34.688;33.040;2023-05-12T10:44:00;100457.88;;;29.16;100.00
49377;BME280;35253;34.688;33.040;2023-05-12T10:46:26;100454.91;;;29.30;100.00
49377;BME280;35253;34.688;33.040;2023-05-12T10:49:01;100454.91;;;29.30;100.00
49377;BME280;35253;34.688;33.040;2023-05-12T10:51:45;100454.47;;;29.33;100.00
49377;BME280;35253;34.688;33.040;2023-05-12T10:54:19;100459.09;;;29.33;100.00
49377;BME280;35253;34.688;33.040;2023-05-12T10:56:45;100455.38;;;29.65;100.00
49377;BME280;35253;34.688;33.040;2023-05-12T10:59:14;100456.28;;;29.90;100.00
49377;BME280;35253;34.688;33.040;2023-05-12T11:04:21;100454.75;;;30.26;100.00
49377;BME280;35253;34.688;33.040;2023-05-12T11:06:57;100451.69;;;30.40;100.00
49377;BME280;35253;34.688;33.040;2023-05-12T11:09:24;100458.47;;;30.81;96.24
49377;BME280;35253;34.688;33.040;2023-05-12T11:11:50;100453.06;;;30.74;91.91
49377;BME280;35253;34.688;33.040;2023-05-12T11:14:16;100448.50;;;30.37;93.74
49377;BME280;35253;34.688;33.040;2023-05-12T11:16:44;100452.81;;;30.02;96.18
49377;BME280;35253;34.688;33.040;2023-05-12T11:19:10;100451.47;;;30.11;93.82
49377;BME280;35253;34.688;33.040;2023-05-12T11:21:37;100444.53;;;30.33;91.53
49377;BME280;35253;34.688;33.040;2023-05-12T11:24:03;100435.66;;;30.06;94.15
49377;BME280;35253;34.688;33.040;2023-05-12T11:26:29;100445.38;;;30.33;92.33
49377;BME280;35253;34.688;33.040;2023-05-12T11:28:58;100457.50;;;30.75;90.70
49377;BME280;35253;34.688;33.040;2023-05-12T11:31:24;100457.78;;;30.18;89.83
49377;BME280;35253;34.688;33.040;2023-05-12T11:34:00;100460.78;;;29.78;91.61
49377;BME280;35253;34.688;33.040;2023-05-12T11:36:26;100454.75;;;30.26;93.42
49377;BME280;35253;34.688;33.040;2023-05-12T11:38:52;100446.56;;;30.44;93.67
49377;BME280;35253;34.688;33.040;2023-05-12T11:41:22;100452.81;;;30.58;96.46
49377;BME280;35253;34.688;33.040;2023-05-12T11:43:49;100474.28;;;30.18;99.76
49377;BME280;35253;34.688;33.040;2023-05-12T11:46:28;100451.81;;;30.21;99.84
49377;BME280;35253;34.688;33.040;2023-05-12T11:48:57;100449.50;;;30.67;99.52
49377;BME280;35253;34.688;33.040;2023-05-12T11:51:23;100442.50;;;29.97;100.00
49377;BME280;35253;34.688;33.040;2023-05-12T11:53:53;100446.34;;;29.89;100.00
49377;BME280;35253;34.688;33.040;2023-05-12T11:56:20;100449.81;;;30.10;100.00
49377;BME280;35253;34.688;33.040;2023-05-12T11:58:52;100466.88;;;30.43;100.00
49377;BME280;35253;34.688;33.040;2023-05-12T12:01:18;100450.53;;;29.54;100.00
49377;BME280;35253;34.688;33.040;2023-05-12T12:03:45;100469.38;;;29.95;100.00
49377;BME280;35253;34.688;33.040;2023-05-12T12:06:13;100445.84;;;30.06;96.05
49377;BME280;35253;34.688;33.040;2023-05-12T12:08:56;100450.03;;;30.33;97.27
49377;BME280;35253;34.688;33.040;2023-05-12T12:11:23;100456.34;;;30.40;88.14
49377;BME280;35253;34.688;33.040;2023-05-12T12:13:52;100463.03;;;30.51;90.11
49377;BME280;35253;34.688;33.040;2023-05-12T12:16:24;100459.44;;;30.93;91.91
49377;BME280;35253;34.688;33.040;2023-05-12T12:18:50;100454.16;;;30.92;90.63
49377;BME280;35253;34.688;33.040;2023-05-12T12:21:16;100468.31;;;30.52;92.40
49377;BME280;35253;34.688;33.040;2023-05-12T12:23:42;100459.91;;;30.16;95.25
49377;BME280;35253;34.688;33.040;2023-05-12T12:26:08;100476.03;;;29.74;97.74
49377;BME280;35253;34.688;33.040;2023-05-12T12:28:34;100477.09;;;29.67;100.00
49377;BME280;35253;34.688;33.040;2023-05-12T12:31:00;100474.34;;;29.73;100.00
49377;BME280;35253;34.688;33.040;2023-05-12T12:33:26;100475.50;;;29.52;100.00
49377;BME280;35253;34.688;33.040;2023-05-12T12:35:51;100476.59;;;29.45;100.00
49377;BME280;35253;34.688;33.040;2023-05-12T12:38:17;100477.88;;;29.42;100.00
49377;BME280;35253;34.688;33.040;2023-05-12T12:40:43;100469.50;;;29.31;100.00